Time;durP1;ratioP1;P1;durP2;ratioP2;P2;SDS_P1;SDS_P2;PMS_P1;PMS_P2;Temp;Humidity;BMP_temperature;BMP_pressure;BME280_temperature;BME280_humidity;BME280_pressure;Samples;Min_cycle;Max_cycle;Signal;HPM_P1;HPM_P2
2023/10/03 00:00:58;;;;;;;29.23;17.20;;;;;;;;;;5015345;28;20203;-66
2023/10/03 00:03:24;;;;;;;27.60;17.20;;;;;;;;;;5015155;28;20175;-67
2023/10/03 00:05:51;;;;;;;29.60;17.43;;;;;;;;;;5014637;28;20658;-67
2023/10/03 00:08:17;;;;;;;30.80;17.20;;;;;;;;;;5015857;28;20184;-67
2023/10/03 00:10:45;;;;;;;32.53;17.10;;;;;;;;;;5016082;28;20211;-67
2023/10/03 00:13:11;;;;;;;27.87;16.47;;;;;;;;;;5015863;28;20198;-67
2023/10/03 00:15:44;;;;;;;28.07;17.00;;;;;;;;;;5015476;28;20210;-67
2023/10/03 00:18:14;;;;;;;32.43;17.93;;;;;;;;;;5014514;28;20591;-67
2023/10/03 00:20:41;;;;;;;31.83;18.60;;;;;;;;;;5015611;28;20175;-67
2023/10/03 00:23:07;;;;;;;32.33;19.43;;;;;;;;;;5015680;28;20749;-67
2023/10/03 00:25:35;;;;;;;34.97;18.90;;;;;;;;;;5014185;28;20283;-67
2023/10/03 00:28:02;;;;;;;31.90;19.10;;;;;;;;;;5015765;28;20234;-67
2023/10/03 00:30:29;;;;;;;34.03;18.50;;;;;;;;;;5015247;28;20681;-68
2023/10/03 00:32:57;;;;;;;26.83;17.57;;;;;;;;;;5015384;28;20270;-67
2023/10/03 00:35:24;;;;;;;30.47;18.13;;;;;;;;;;5015380;28;20195;-68
2023/10/03 00:37:52;;;;;;;28.40;17.70;;;;;;;;;;5015131;28;20195;-68
2023/10/03 00:42:49;;;;;;;28.63;17.33;;;;;;;;;;5015919;28;20571;-66
2023/10/03 00:45:19;;;;;;;29.57;17.50;;;;;;;;;;5014282;28;20187;-67
2023/10/03 00:47:48;;;;;;;35.90;18.40;;;;;;;;;;5013061;28;20187;-67
2023/10/03 00:50:15;;;;;;;33.90;18.17;;;;;;;;;;5012908;28;20538;-67
2023/10/03 00:52:42;;;;;;;31.17;18.30;;;;;;;;;;5014126;28;20223;-67
2023/10/03 00:55:10;;;;;;;30.23;17.33;;;;;;;;;;5014036;28;20200;-67
2023/10/03 00:57:37;;;;;;;32.40;18.90;;;;;;;;;;5014241;28;20180;-67
2023/10/03 01:00:14;;;;;;;33.67;18.73;;;;;;;;;;5013844;28;20222;-67
2023/10/03 01:02:47;;;;;;;28.90;17.90;;;;;;;;;;5012447;28;20253;-67
2023/10/03 01:05:15;;;;;;;34.77;18.27;;;;;;;;;;5012496;28;20188;-67
2023/10/03 01:07:42;;;;;;;30.50;17.73;;;;;;;;;;5012542;28;20205;-67
2023/10/03 01:10:08;;;;;;;31.30;20.20;;;;;;;;;;5013961;28;20183;-67
2023/10/03 01:12:35;;;;;;;33.73;18.43;;;;;;;;;;5013542;28;20204;-67
2023/10/03 01:15:05;;;;;;;37.47;23.63;;;;;;;;;;5012307;28;20207;-67
2023/10/03 01:17:33;;;;;;;29.53;18.70;;;;;;;;;;5014025;28;20160;-67
2023/10/03 01:20:01;;;;;;;36.50;19.50;;;;;;;;;;5013542;28;20594;-67
2023/10/03 01:22:27;;;;;;;35.20;18.57;;;;;;;;;;5013395;28;20317;-67
2023/10/03 01:24:53;;;;;;;34.23;19.47;;;;;;;;;;5013418;28;20646;-67
2023/10/03 01:27:19;;;;;;;36.77;18.17;;;;;;;;;;5013577;28;20184;-67
2023/10/03 01:29:45;;;;;;;32.20;19.83;;;;;;;;;;5012624;28;20212;-67
2023/10/03 01:32:11;;;;;;;28.83;18.20;;;;;;;;;;5012370;28;20595;-67
2023/10/03 01:34:37;;;;;;;33.13;17.67;;;;;;;;;;5013505;28;20204;-67
2023/10/03 01:37:03;;;;;;;33.73;18.40;;;;;;;;;;5013448;28;20202;-68
2023/10/03 01:39:30;;;;;;;30.03;18.47;;;;;;;;;;5014119;28;20222;-67
2023/10/03 01:41:56;;;;;;;27.13;18.17;;;;;;;;;;5013768;28;20199;-67
2023/10/03 01:44:23;;;;;;;28.03;16.60;;;;;;;;;;5012138;28;20708;-68
2023/10/03 01:46:50;;;;;;;32.77;17.67;;;;;;;;;;5012073;28;20593;-66
2023/10/03 01:49:17;;;;;;;32.93;17.60;;;;;;;;;;5013764;28;20208;-66
2023/10/03 01:51:43;;;;;;;31.60;16.73;;;;;;;;;;5013464;28;20278;-67
2023/10/03 01:54:09;;;;;;;30.10;17.13;;;;;;;;;;5013283;28;20183;-66
2023/10/03 01:56:35;;;;;;;30.37;16.40;;;;;;;;;;5013211;28;20226;-67
2023/10/03 01:59:02;;;;;;;28.50;17.03;;;;;;;;;;5013057;28;20525;-67
2023/10/03 02:01:28;;;;;;;30.67;17.53;;;;;;;;;;5012905;28;20219;-66
2023/10/03 02:03:55;;;;;;;29.10;16.10;;;;;;;;;;5013586;28;20641;-67
2023/10/03 02:06:21;;;;;;;27.43;16.63;;;;;;;;;;5013037;28;20210;-65
2023/10/03 02:08:47;;;;;;;29.60;16.30;;;;;;;;;;5013114;28;20222;-66
2023/10/03 02:11:13;;;;;;;28.03;16.77;;;;;;;;;;5012386;28;20215;-66
2023/10/03 02:13:41;;;;;;;29.17;16.60;;;;;;;;;;5013160;28;20182;-66
2023/10/03 02:16:07;;;;;;;29.27;16.90;;;;;;;;;;5013570;28;20207;-66
2023/10/03 02:18:33;;;;;;;25.27;16.13;;;;;;;;;;5013056;28;20172;-67
2023/10/03 02:21:03;;;;;;;26.90;15.53;;;;;;;;;;5013525;28;20658;-66
2023/10/03 02:23:32;;;;;;;30.33;17.57;;;;;;;;;;5012583;28;20190;-66
2023/10/03 02:26:06;;;;;;;30.17;17.03;;;;;;;;;;5014572;28;20179;-66
2023/10/03 02:28:32;;;;;;;32.77;17.63;;;;;;;;;;5013786;28;20238;-65
2023/10/03 02:31:01;;;;;;;29.53;16.57;;;;;;;;;;5012810;28;20180;-66
2023/10/03 02:33:28;;;;;;;26.07;15.23;;;;;;;;;;5013634;28;20180;-66
2023/10/03 02:35:54;;;;;;;27.67;16.87;;;;;;;;;;5012903;28;20203;-66
2023/10/03 02:38:25;;;;;;;26.20;16.33;;;;;;;;;;5011697;28;20616;-66
2023/10/03 02:41:00;;;;;;;24.73;15.00;;;;;;;;;;5013392;28;20591;-66
2023/10/03 02:43:28;;;;;;;26.47;16.80;;;;;;;;;;5013147;28;20621;-66
2023/10/03 02:45:54;;;;;;;27.43;15.67;;;;;;;;;;5013949;28;20187;-66
2023/10/03 02:48:21;;;;;;;25.67;16.03;;;;;;;;;;5012887;28;20180;-66
2023/10/03 02:50:48;;;;;;;24.93;15.60;;;;;;;;;;5012753;28;20187;-66
2023/10/03 02:53:20;;;;;;;32.70;17.90;;;;;;;;;;5012798;28;20200;-66
2023/10/03 02:55:51;;;;;;;31.27;17.97;;;;;;;;;;5012552;28;20669;-66
2023/10/03 02:58:17;;;;;;;31.37;17.87;;;;;;;;;;5011200;28;20603;-66
2023/10/03 03:00:46;;;;;;;28.07;17.27;;;;;;;;;;5012378;28;20246;-66
2023/10/03 03:03:12;;;;;;;29.50;17.10;;;;;;;;;;5012275;28;20214;-66
2023/10/03 03:05:38;;;;;;;28.27;17.20;;;;;;;;;;5012517;28;20549;-66
2023/10/03 03:08:21;;;;;;;33.47;18.10;;;;;;;;;;5012600;28;20179;-66
2023/10/03 03:10:58;;;;;;;31.53;19.13;;;;;;;;;;5012997;28;20255;-66
2023/10/03 03:13:26;;;;;;;32.27;19.83;;;;;;;;;;5010953;28;20656;-66
2023/10/03 03:15:53;;;;;;;37.27;21.07;;;;;;;;;;5012464;28;20195;-66
2023/10/03 03:18:24;;;;;;;30.60;18.63;;;;;;;;;;5010888;28;20184;-66
2023/10/03 03:20:57;;;;;;;34.13;18.07;;;;;;;;;;5012495;28;20522;-66
2023/10/03 03:23:23;;;;;;;28.30;17.40;;;;;;;;;;5013784;28;20163;-66
2023/10/03 03:25:57;;;;;;;28.30;16.00;;;;;;;;;;5015769;28;20190;-66
2023/10/03 03:28:23;;;;;;;25.73;15.20;;;;;;;;;;5014500;28;20202;-66
2023/10/03 03:30:56;;;;;;;26.97;15.80;;;;;;;;;;5016173;28;20192;-66
2023/10/03 03:33:26;;;;;;;26.23;15.13;;;;;;;;;;5015387;28;20203;-66
2023/10/03 03:35:52;;;;;;;26.60;15.73;;;;;;;;;;5014089;28;20600;-65
2023/10/03 03:38:18;;;;;;;26.20;15.43;;;;;;;;;;5015599;28;20175;-66
2023/10/03 03:40:55;;;;;;;26.67;16.00;;;;;;;;;;5014064;28;20708;-66
2023/10/03 03:43:21;;;;;;;28.53;15.20;;;;;;;;;;5015736;28;20629;-66
2023/10/03 03:45:48;;;;;;;25.23;15.67;;;;;;;;;;5015530;28;20194;-66
2023/10/03 03:48:14;;;;;;;28.37;16.67;;;;;;;;;;5014298;28;20183;-66
2023/10/03 03:50:40;;;;;;;23.73;15.07;;;;;;;;;;5015633;28;20227;-66
2023/10/03 03:53:07;;;;;;;26.73;15.17;;;;;;;;;;5015522;28;20271;-67
2023/10/03 03:55:34;;;;;;;23.53;14.93;;;;;;;;;;5015217;28;20204;-66
2023/10/03 03:58:03;;;;;;;23.83;15.07;;;;;;;;;;5015390;28;20215;-66
2023/10/03 04:00:31;;;;;;;27.27;15.40;;;;;;;;;;5013749;28;20713;-67
2023/10/03 04:02:57;;;;;;;25.37;16.03;;;;;;;;;;5015438;28;20199;-67
2023/10/03 04:05:25;;;;;;;26.90;15.53;;;;;;;;;;5013820;28;20187;-67
2023/10/03 04:07:51;;;;;;;29.27;16.33;;;;;;;;;;5015142;28;20172;-66
2023/10/03 04:10:18;;;;;;;24.30;15.10;;;;;;;;;;5013804;28;20361;-67
2023/10/03 04:12:44;;;;;;;27.70;15.90;;;;;;;;;;5015000;28;20199;-66
2023/10/03 04:15:14;;;;;;;26.10;15.60;;;;;;;;;;5013789;28;20276;-67
2023/10/03 04:17:41;;;;;;;24.47;15.10;;;;;;;;;;5014836;28;20537;-67
2023/10/03 04:20:19;;;;;;;25.93;15.03;;;;;;;;;;5013427;28;20187;-66
2023/10/03 04:22:46;;;;;;;23.03;14.80;;;;;;;;;;5014967;28;20196;-66
2023/10/03 04:25:16;;;;;;;24.80;14.47;;;;;;;;;;5015373;28;20172;-67
2023/10/03 04:27:42;;;;;;;25.90;15.40;;;;;;;;;;5014558;28;20202;-66
2023/10/03 04:30:13;;;;;;;25.63;15.83;;;;;;;;;;5014502;28;20183;-67
2023/10/03 04:32:40;;;;;;;30.57;15.60;;;;;;;;;;5014285;28;20217;-67
2023/10/03 04:35:06;;;;;;;24.33;14.67;;;;;;;;;;5014431;28;20298;-67
2023/10/03 04:37:32;;;;;;;28.97;15.07;;;;;;;;;;5014687;28;20183;-67
2023/10/03 04:39:59;;;;;;;25.20;14.03;;;;;;;;;;5014493;28;20180;-66
2023/10/03 04:42:25;;;;;;;27.77;15.23;;;;;;;;;;5014577;28;20203;-67
2023/10/03 04:44:51;;;;;;;25.57;14.93;;;;;;;;;;5014347;28;20628;-67
2023/10/03 04:47:17;;;;;;;23.67;13.47;;;;;;;;;;5013679;28;20578;-68
2023/10/03 04:49:43;;;;;;;22.60;13.30;;;;;;;;;;5014764;28;20556;-67
2023/10/03 04:52:09;;;;;;;23.17;13.60;;;;;;;;;;5014520;28;20627;-68
2023/10/03 04:54:35;;;;;;;22.20;12.73;;;;;;;;;;5015430;28;20204;-68
2023/10/03 04:57:01;;;;;;;25.03;14.40;;;;;;;;;;5014689;28;20531;-68
2023/10/03 04:59:27;;;;;;;21.70;12.63;;;;;;;;;;5014178;28;20345;-68
2023/10/03 05:01:53;;;;;;;20.83;12.60;;;;;;;;;;5014117;28;20203;-68
2023/10/03 05:04:19;;;;;;;24.83;13.83;;;;;;;;;;5012930;28;20179;-69
2023/10/03 05:06:47;;;;;;;28.07;14.40;;;;;;;;;;5014228;28;20175;-68
2023/10/03 05:09:13;;;;;;;24.83;14.37;;;;;;;;;;5012986;28;20583;-68
2023/10/03 05:11:40;;;;;;;22.67;12.80;;;;;;;;;;5016194;28;20242;-68
2023/10/03 05:14:06;;;;;;;26.13;12.93;;;;;;;;;;5016158;28;20172;-68
2023/10/03 05:16:34;;;;;;;23.00;12.87;;;;;;;;;;5015523;28;20211;-68
2023/10/03 05:19:00;;;;;;;20.83;13.03;;;;;;;;;;5015039;28;20561;-68
2023/10/03 05:21:26;;;;;;;21.77;12.77;;;;;;;;;;5015067;28;20322;-68
2023/10/03 05:23:52;;;;;;;19.47;12.27;;;;;;;;;;5014107;28;20224;-67
2023/10/03 05:26:19;;;;;;;20.57;11.80;;;;;;;;;;5014581;28;20225;-68
2023/10/03 05:28:45;;;;;;;18.33;11.97;;;;;;;;;;5013899;28;20180;-68
2023/10/03 05:31:15;;;;;;;20.53;11.73;;;;;;;;;;5013482;28;20251;-67
2023/10/03 05:33:42;;;;;;;23.70;12.30;;;;;;;;;;5014133;28;20281;-68
2023/10/03 05:36:14;;;;;;;23.00;11.37;;;;;;;;;;5012366;28;20544;-68
2023/10/03 05:38:42;;;;;;;23.40;11.77;;;;;;;;;;5013778;28;20254;-68
2023/10/03 05:41:17;;;;;;;19.03;11.67;;;;;;;;;;5013374;28;20178;-68
2023/10/03 05:43:43;;;;;;;22.27;12.20;;;;;;;;;;5013421;28;20266;-68
2023/10/03 05:46:11;;;;;;;18.97;12.03;;;;;;;;;;5012429;28;20190;-68
2023/10/03 05:48:37;;;;;;;18.37;10.87;;;;;;;;;;5013405;28;20187;-68
2023/10/03 05:51:03;;;;;;;19.97;11.70;;;;;;;;;;5013464;28;20210;-69
2023/10/03 05:53:30;;;;;;;19.33;11.53;;;;;;;;;;5011898;28;20657;-69
2023/10/03 05:55:56;;;;;;;22.00;11.07;;;;;;;;;;5011816;28;20269;-68
2023/10/03 05:58:22;;;;;;;21.57;11.13;;;;;;;;;;5013259;28;20646;-68
2023/10/03 06:00:49;;;;;;;19.30;12.00;;;;;;;;;;5013792;28;20204;-69
2023/10/03 06:03:15;;;;;;;22.00;10.63;;;;;;;;;;5013109;28;20192;-68
2023/10/03 06:05:41;;;;;;;17.57;11.43;;;;;;;;;;5011696;28;20179;-68
2023/10/03 06:08:12;;;;;;;19.27;12.53;;;;;;;;;;5013848;28;20685;-68
2023/10/03 06:10:38;;;;;;;19.77;11.47;;;;;;;;;;5012089;28;20254;-69
2023/10/03 06:13:09;;;;;;;27.57;10.03;;;;;;;;;;5013230;28;20199;-69
2023/10/03 06:15:37;;;;;;;16.40;10.63;;;;;;;;;;5013790;28;20192;-69
2023/10/03 06:18:04;;;;;;;18.87;10.67;;;;;;;;;;5012945;28;20175;-69
2023/10/03 06:20:30;;;;;;;18.63;10.07;;;;;;;;;;5013055;28;20175;-69
2023/10/03 06:22:56;;;;;;;16.40;9.60;;;;;;;;;;5013111;28;20217;-69
2023/10/03 06:25:24;;;;;;;17.10;10.50;;;;;;;;;;5011589;28;20183;-70
2023/10/03 06:27:50;;;;;;;16.07;9.10;;;;;;;;;;5011543;28;20184;-69
2023/10/03 06:30:17;;;;;;;11.60;8.30;;;;;;;;;;5011461;28;20210;-68
2023/10/03 06:32:44;;;;;;;14.30;9.23;;;;;;;;;;5011410;28;20643;-69
2023/10/03 06:35:10;;;;;;;22.00;10.43;;;;;;;;;;5012791;28;20213;-69
2023/10/03 06:37:37;;;;;;;17.30;9.07;;;;;;;;;;5012865;28;20218;-70
2023/10/03 06:40:07;;;;;;;14.37;8.27;;;;;;;;;;5012777;28;20195;-70
2023/10/03 06:42:36;;;;;;;12.93;6.20;;;;;;;;;;5012959;28;20188;-69
2023/10/03 06:45:03;;;;;;;12.87;6.83;;;;;;;;;;5026148;23;20325;-68
2023/10/03 06:47:29;;;;;;;11.87;6.40;;;;;;;;;;5011846;28;20192;-69
2023/10/03 06:49:55;;;;;;;8.57;5.47;;;;;;;;;;5013308;28;20184;-69
2023/10/03 06:52:21;;;;;;;12.80;6.60;;;;;;;;;;5012143;28;20230;-69
2023/10/03 06:54:47;;;;;;;15.37;7.10;;;;;;;;;;5011949;28;20242;-69
2023/10/03 06:57:14;;;;;;;9.60;6.57;;;;;;;;;;5013464;28;20235;-69
2023/10/03 06:59:40;;;;;;;12.43;6.73;;;;;;;;;;5015538;28;20192;-69
2023/10/03 07:02:07;;;;;;;9.67;6.27;;;;;;;;;;5016955;28;20769;-69
2023/10/03 07:04:34;;;;;;;12.93;5.87;;;;;;;;;;5015448;28;20203;-69
2023/10/03 07:07:00;;;;;;;10.93;5.53;;;;;;;;;;5015741;28;20183;-69
2023/10/03 07:09:26;;;;;;;9.73;6.33;;;;;;;;;;5017106;28;20230;-68
2023/10/03 07:11:52;;;;;;;8.77;5.57;;;;;;;;;;5016674;28;20184;-68
2023/10/03 07:14:19;;;;;;;14.23;6.07;;;;;;;;;;5016454;28;20665;-69
2023/10/03 07:16:46;;;;;;;8.83;5.83;;;;;;;;;;5015217;28;20184;-69
2023/10/03 07:19:15;;;;;;;9.50;5.70;;;;;;;;;;5015012;28;20680;-69
2023/10/03 07:21:44;;;;;;;8.50;6.20;;;;;;;;;;5016395;28;20180;-70
2023/10/03 07:24:10;;;;;;;11.77;5.50;;;;;;;;;;5016325;28;20259;-70
2023/10/03 07:26:36;;;;;;;8.00;5.03;;;;;;;;;;5016436;28;20636;-70
2023/10/03 07:29:02;;;;;;;8.10;5.17;;;;;;;;;;5016240;28;20271;-70
2023/10/03 07:31:29;;;;;;;10.87;5.60;;;;;;;;;;5016520;28;20176;-70
2023/10/03 07:33:56;;;;;;;10.47;5.33;;;;;;;;;;5015235;28;20195;-69
2023/10/03 07:36:23;;;;;;;7.53;5.30;;;;;;;;;;5016001;28;20311;-69
2023/10/03 07:38:49;;;;;;;8.70;5.30;;;;;;;;;;5015012;28;20229;-70
2023/10/03 07:41:19;;;;;;;13.30;4.87;;;;;;;;;;5016128;28;20254;-70
2023/10/03 07:43:48;;;;;;;8.10;4.70;;;;;;;;;;5015923;28;20159;-70
2023/10/03 07:46:21;;;;;;;7.20;4.27;;;;;;;;;;5015904;28;20212;-70
2023/10/03 07:48:48;;;;;;;9.80;5.43;;;;;;;;;;5015943;28;20548;-70
2023/10/03 07:51:17;;;;;;;9.33;5.30;;;;;;;;;;5016243;28;20171;-70
2023/10/03 07:53:43;;;;;;;13.73;6.07;;;;;;;;;;5014787;28;20638;-70
2023/10/03 07:56:38;;;;;;;7.90;5.40;;;;;;;;;;5015942;28;20206;-70
2023/10/03 07:59:04;;;;;;;8.57;5.27;;;;;;;;;;5014756;28;20712;-70
2023/10/03 08:01:31;;;;;;;6.53;4.93;;;;;;;;;;5017624;28;20175;-69
2023/10/03 08:03:58;;;;;;;9.80;5.47;;;;;;;;;;5014617;28;20215;-69
2023/10/03 08:06:25;;;;;;;10.43;5.80;;;;;;;;;;5015759;28;20202;-69
2023/10/03 08:08:59;;;;;;;9.37;5.90;;;;;;;;;;5015208;28;20184;-70
2023/10/03 08:11:28;;;;;;;11.63;8.20;;;;;;;;;;5014491;28;20182;-69
2023/10/03 08:13:54;;;;;;;11.70;6.57;;;;;;;;;;5015705;28;20172;-70
2023/10/03 08:16:22;;;;;;;10.60;6.30;;;;;;;;;;5015747;28;20238;-69
2023/10/03 08:18:57;;;;;;;12.83;7.17;;;;;;;;;;5015791;28;20175;-70
2023/10/03 08:21:23;;;;;;;10.60;7.60;;;;;;;;;;5016248;28;20162;-70
2023/10/03 08:23:51;;;;;;;12.07;6.13;;;;;;;;;;5017381;28;20176;-70
2023/10/03 08:26:18;;;;;;;9.93;6.07;;;;;;;;;;5019386;28;20191;-70
2023/10/03 08:28:44;;;;;;;12.67;6.67;;;;;;;;;;5016001;28;20180;-70
2023/10/03 08:31:10;;;;;;;10.50;5.60;;;;;;;;;;5015496;28;20187;-70
2023/10/03 08:33:36;;;;;;;12.40;6.77;;;;;;;;;;5014303;28;20269;-69
2023/10/03 08:36:14;;;;;;;12.13;6.43;;;;;;;;;;5014104;28;20235;-69
2023/10/03 08:38:43;;;;;;;10.97;6.70;;;;;;;;;;5015456;28;20160;-69
2023/10/03 08:41:11;;;;;;;9.43;6.53;;;;;;;;;;5015248;28;20705;-69
2023/10/03 08:43:38;;;;;;;10.67;6.87;;;;;;;;;;5015406;28;20287;-69
2023/10/03 08:46:09;;;;;;;11.80;7.83;;;;;;;;;;5015137;28;20250;-69
2023/10/03 08:48:43;;;;;;;9.00;7.03;;;;;;;;;;5015797;28;20196;-69
2023/10/03 08:51:13;;;;;;;14.23;6.97;;;;;;;;;;5022537;28;20168;-69
2023/10/03 08:53:40;;;;;;;12.57;6.87;;;;;;;;;;5021958;28;20180;-69
2023/10/03 08:56:08;;;;;;;13.17;6.60;;;;;;;;;;5015174;28;20207;-69
2023/10/03 08:58:34;;;;;;;15.73;7.83;;;;;;;;;;5015701;28;20171;-69
2023/10/03 09:01:02;;;;;;;12.80;7.57;;;;;;;;;;5015580;28;20543;-69
2023/10/03 09:06:19;;;;;;;14.30;7.43;;;;;;;;;;5015182;28;20218;-69
2023/10/03 09:09:13;;;;;;;10.93;7.33;;;;;;;;;;5013106;28;20180;-68
2023/10/03 09:11:39;;;;;;;10.33;7.07;;;;;;;;;;5014624;28;20164;-68
2023/10/03 09:14:05;;;;;;;13.40;7.60;;;;;;;;;;5012756;28;20317;-69
2023/10/03 09:16:38;;;;;;;12.57;8.07;;;;;;;;;;5012720;28;20211;-69
2023/10/03 09:19:04;;;;;;;11.87;7.37;;;;;;;;;;5012923;28;20634;-69
2023/10/03 09:21:30;;;;;;;9.40;6.83;;;;;;;;;;5013969;28;20187;-69
2023/10/03 09:24:17;;;;;;;10.93;6.40;;;;;;;;;;5013971;28;20238;-69
2023/10/03 09:26:46;;;;;;;14.50;7.40;;;;;;;;;;5014377;28;20247;-69
2023/10/03 09:29:19;;;;;;;10.17;7.03;;;;;;;;;;5013845;28;20586;-69
2023/10/03 09:31:46;;;;;;;12.67;7.60;;;;;;;;;;5012636;28;20183;-69
2023/10/03 09:34:14;;;;;;;12.90;7.10;;;;;;;;;;5012800;28;20219;-69
2023/10/03 09:36:40;;;;;;;9.50;6.83;;;;;;;;;;5013570;28;20380;-69
2023/10/03 09:39:07;;;;;;;12.40;7.50;;;;;;;;;;5013647;28;20265;-69
2023/10/03 09:41:38;;;;;;;15.37;9.10;;;;;;;;;;5013570;28;20175;-70
2023/10/03 09:44:06;;;;;;;17.43;9.20;;;;;;;;;;5013714;28;20267;-70
2023/10/03 09:46:41;;;;;;;14.10;9.27;;;;;;;;;;5013529;28;20197;-69
2023/10/03 09:49:10;;;;;;;14.10;9.37;;;;;;;;;;5013634;28;20170;-70
2023/10/03 09:51:46;;;;;;;14.10;9.50;;;;;;;;;;5014341;28;20530;-70
2023/10/03 09:54:14;;;;;;;13.17;10.00;;;;;;;;;;5014079;28;20199;-70
2023/10/03 09:56:40;;;;;;;13.23;10.87;;;;;;;;;;5012120;28;20203;-70
2023/10/03 09:59:17;;;;;;;16.73;10.20;;;;;;;;;;5013439;28;20182;-70
2023/10/03 10:01:45;;;;;;;13.80;10.13;;;;;;;;;;5012298;28;20265;-70
2023/10/03 10:04:13;;;;;;;16.10;11.53;;;;;;;;;;5013313;28;20176;-70
2023/10/03 10:06:50;;;;;;;13.17;11.60;;;;;;;;;;5013411;28;20262;-70
2023/10/03 10:09:28;;;;;;;16.70;12.37;;;;;;;;;;5012014;28;20179;-71
2023/10/03 10:12:26;;;;;;;16.30;12.30;;;;;;;;;;5013763;28;20180;-70
2023/10/03 10:15:00;;;;;;;18.37;12.00;;;;;;;;;;4969977;28;20686;-70
2023/10/03 10:17:41;;;;;;;17.43;13.33;;;;;;;;;;5013625;28;20238;-70
2023/10/03 10:20:37;;;;;;;15.97;13.00;;;;;;;;;;5013371;28;20156;-70
2023/10/03 10:23:06;;;;;;;22.33;13.13;;;;;;;;;;5013276;28;20259;-70
2023/10/03 10:25:41;;;;;;;15.93;13.10;;;;;;;;;;5013187;28;20610;-69
2023/10/03 10:28:08;;;;;;;14.97;12.43;;;;;;;;;;5011853;28;20189;-71
2023/10/03 10:30:39;;;;;;;16.73;11.53;;;;;;;;;;5011765;28;20244;-70
2023/10/03 10:33:23;;;;;;;15.80;11.63;;;;;;;;;;5016972;28;20207;-70
2023/10/03 10:35:55;;;;;;;17.00;10.40;;;;;;;;;;5018610;28;20206;-69
2023/10/03 10:38:22;;;;;;;19.37;10.53;;;;;;;;;;5016126;28;20172;-69
2023/10/03 10:41:07;;;;;;;13.17;8.77;;;;;;;;;;5017122;28;20263;-69
2023/10/03 10:43:34;;;;;;;10.87;8.37;;;;;;;;;;5017208;28;20179;-68
2023/10/03 10:46:32;;;;;;;12.43;7.77;;;;;;;;;;5016921;28;20269;-69
2023/10/03 10:48:58;;;;;;;8.70;4.27;;;;;;;;;;4994782;28;20199;-69
2023/10/03 10:51:25;;;;;;;5.10;3.17;;;;;;;;;;5016998;28;20194;-69
2023/10/03 10:53:51;;;;;;;4.87;2.97;;;;;;;;;;5016808;28;20183;-68
2023/10/03 10:56:17;;;;;;;6.93;2.60;;;;;;;;;;5016633;28;20286;-69
2023/10/03 10:58:50;;;;;;;3.77;2.40;;;;;;;;;;5016719;28;20251;-68
2023/10/03 11:01:18;;;;;;;2.83;1.43;;;;;;;;;;5017190;28;20252;-69
2023/10/03 11:03:44;;;;;;;2.73;1.50;;;;;;;;;;5015334;28;20190;-68
2023/10/03 11:06:23;;;;;;;2.20;1.43;;;;;;;;;;5015977;28;20207;-68
2023/10/03 11:08:50;;;;;;;3.77;1.30;;;;;;;;;;5016648;28;20622;-68
2023/10/03 11:11:16;;;;;;;2.70;1.90;;;;;;;;;;5016819;28;20608;-68
2023/10/03 11:13:46;;;;;;;3.20;1.80;;;;;;;;;;5015366;28;20195;-68
2023/10/03 11:16:12;;;;;;;6.40;1.60;;;;;;;;;;5015316;28;20212;-68
2023/10/03 11:18:38;;;;;;;5.67;1.70;;;;;;;;;;5016805;28;20255;-68
2023/10/03 11:21:04;;;;;;;4.77;1.93;;;;;;;;;;5016755;28;20180;-67
2023/10/03 11:23:30;;;;;;;3.83;2.07;;;;;;;;;;5017053;28;20176;-68
2023/10/03 11:25:57;;;;;;;4.20;1.83;;;;;;;;;;5015189;28;20207;-68
2023/10/03 11:28:24;;;;;;;5.67;2.07;;;;;;;;;;5016016;28;20188;-68
2023/10/03 11:31:03;;;;;;;4.80;2.33;;;;;;;;;;5016017;28;20192;-68
2023/10/03 11:33:29;;;;;;;5.10;1.93;;;;;;;;;;5020044;28;20342;-69
2023/10/03 11:35:55;;;;;;;3.47;1.73;;;;;;;;;;5020377;28;20215;-67
2023/10/03 11:38:21;;;;;;;4.80;1.60;;;;;;;;;;5016378;28;20650;-68
2023/10/03 11:40:49;;;;;;;5.87;1.87;;;;;;;;;;5016106;28;20650;-67
2023/10/03 11:43:20;;;;;;;3.97;2.23;;;;;;;;;;5014671;28;20263;-68
2023/10/03 11:45:57;;;;;;;6.23;2.33;;;;;;;;;;5015856;28;20237;-68
2023/10/03 11:48:23;;;;;;;6.07;1.70;;;;;;;;;;5015662;28;20203;-68
2023/10/03 11:50:49;;;;;;;6.77;2.37;;;;;;;;;;5015149;28;20188;-68
2023/10/03 11:53:15;;;;;;;7.77;2.23;;;;;;;;;;5015868;28;20560;-68
2023/10/03 11:55:42;;;;;;;4.43;2.00;;;;;;;;;;5015674;28;20669;-68
2023/10/03 11:58:12;;;;;;;3.90;1.70;;;;;;;;;;5014361;28;20184;-68
2023/10/03 12:00:42;;;;;;;3.40;1.70;;;;;;;;;;5014677;28;20187;-69
2023/10/03 12:03:09;;;;;;;4.13;1.90;;;;;;;;;;5015088;28;20179;-68
2023/10/03 12:05:36;;;;;;;2.90;1.50;;;;;;;;;;5015600;28;20291;-69
2023/10/03 12:08:03;;;;;;;2.77;1.50;;;;;;;;;;5015941;28;20180;-69
2023/10/03 12:10:31;;;;;;;4.30;1.80;;;;;;;;;;5016139;28;20180;-68
2023/10/03 12:12:57;;;;;;;4.73;1.30;;;;;;;;;;5014334;28;20191;-68
2023/10/03 12:15:24;;;;;;;3.53;1.47;;;;;;;;;;5014156;28;20219;-68
2023/10/03 12:17:50;;;;;;;2.77;1.30;;;;;;;;;;5015393;28;20637;-68
2023/10/03 12:20:18;;;;;;;3.33;1.90;;;;;;;;;;5014059;28;20206;-68
2023/10/03 12:22:48;;;;;;;5.77;1.50;;;;;;;;;;5015283;28;20267;-68
2023/10/03 12:25:15;;;;;;;2.90;1.83;;;;;;;;;;5015269;28;20258;-68
2023/10/03 12:27:42;;;;;;;2.30;1.30;;;;;;;;;;5015351;28;20191;-72
2023/10/03 12:30:10;;;;;;;5.27;2.00;;;;;;;;;;5016805;28;20267;-69
2023/10/03 12:32:40;;;;;;;2.03;1.57;;;;;;;;;;5014467;28;20187;-69
2023/10/03 12:35:07;;;;;;;2.37;1.70;;;;;;;;;;5014882;28;20207;-70
2023/10/03 12:37:34;;;;;;;3.33;2.10;;;;;;;;;;5014881;28;20222;-70
2023/10/03 12:40:13;;;;;;;3.93;2.30;;;;;;;;;;5019210;28;20183;-70
2023/10/03 12:42:40;;;;;;;3.20;2.23;;;;;;;;;;5015782;28;20258;-70
2023/10/03 12:45:07;;;;;;;3.13;2.17;;;;;;;;;;5034479;28;20279;-70
2023/10/03 12:47:35;;;;;;;2.33;2.00;;;;;;;;;;5031355;23;20231;-66
2023/10/03 12:50:01;;;;;;;5.57;2.50;;;;;;;;;;5013505;28;20180;-66
2023/10/03 12:52:30;;;;;;;4.20;2.30;;;;;;;;;;5013471;28;20210;-66
2023/10/03 12:54:59;;;;;;;2.03;1.53;;;;;;;;;;5014206;28;20678;-66
2023/10/03 12:57:24;;;;;;;3.40;2.07;;;;;;;;;;5013092;28;20287;-66
2023/10/03 12:59:52;;;;;;;4.07;2.10;;;;;;;;;;5014477;28;20259;-65
2023/10/03 13:02:19;;;;;;;2.63;2.40;;;;;;;;;;5014654;28;20645;-65
2023/10/03 13:04:46;;;;;;;3.17;1.87;;;;;;;;;;5014077;28;20183;-65
2023/10/03 13:07:12;;;;;;;6.40;3.80;;;;;;;;;;5013865;28;20199;-65
2023/10/03 13:09:43;;;;;;;4.43;2.20;;;;;;;;;;5014384;28;20180;-69
2023/10/03 13:12:10;;;;;;;5.43;2.33;;;;;;;;;;5014392;28;20163;-68
2023/10/03 13:14:36;;;;;;;5.67;1.97;;;;;;;;;;5012816;28;20258;-68
2023/10/03 13:17:02;;;;;;;2.93;2.03;;;;;;;;;;5012870;28;20238;-67
2023/10/03 13:19:31;;;;;;;9.57;2.63;;;;;;;;;;5012645;28;20180;-70
2023/10/03 13:21:58;;;;;;;7.70;3.13;;;;;;;;;;5012715;28;20455;-69
2023/10/03 13:24:25;;;;;;;5.67;2.50;;;;;;;;;;5014233;28;20568;-70
2023/10/03 13:26:53;;;;;;;2.90;1.63;;;;;;;;;;5014514;28;20313;-69
2023/10/03 13:29:19;;;;;;;3.00;2.00;;;;;;;;;;5012325;28;20560;-69
2023/10/03 13:31:45;;;;;;;3.03;2.27;;;;;;;;;;5013838;28;20271;-69
2023/10/03 13:34:12;;;;;;;8.60;2.37;;;;;;;;;;5013742;28;20543;-69
2023/10/03 13:36:38;;;;;;;2.00;1.50;;;;;;;;;;5013535;28;20200;-69
2023/10/03 13:39:08;;;;;;;3.73;1.70;;;;;;;;;;5012070;28;20713;-69
2023/10/03 13:41:34;;;;;;;3.10;1.70;;;;;;;;;;5013533;28;20222;-68
2023/10/03 13:44:00;;;;;;;2.80;1.83;;;;;;;;;;5012147;28;20649;-68
2023/10/03 13:46:26;;;;;;;5.03;1.97;;;;;;;;;;5012335;28;20180;-69
2023/10/03 13:48:53;;;;;;;2.30;1.83;;;;;;;;;;5013240;28;20262;-68
2023/10/03 13:51:19;;;;;;;4.37;1.63;;;;;;;;;;5013792;28;20190;-69
2023/10/03 13:53:45;;;;;;;2.47;1.70;;;;;;;;;;5012210;28;20179;-68
2023/10/03 13:56:11;;;;;;;3.37;1.80;;;;;;;;;;5011859;28;20208;-69
2023/10/03 13:58:36;;;;;;;2.37;1.80;;;;;;;;;;5011778;28;20577;-69
2023/10/03 14:01:03;;;;;;;2.03;1.50;;;;;;;;;;5012225;28;20180;-68
2023/10/03 14:03:37;;;;;;;3.67;1.80;;;;;;;;;;5013146;28;20176;-68
2023/10/03 14:06:04;;;;;;;4.70;1.50;;;;;;;;;;5012806;28;20156;-69
2023/10/03 14:08:30;;;;;;;3.47;1.50;;;;;;;;;;5013474;28;20199;-68
2023/10/03 14:10:56;;;;;;;2.10;1.70;;;;;;;;;;5013808;28;20188;-69
2023/10/03 14:13:22;;;;;;;2.43;1.70;;;;;;;;;;5013483;28;20183;-69
2023/10/03 14:15:48;;;;;;;2.60;1.60;;;;;;;;;;5014149;28;20294;-69
2023/10/03 14:18:14;;;;;;;2.87;1.70;;;;;;;;;;5012137;28;20203;-69
2023/10/03 14:20:41;;;;;;;2.47;1.60;;;;;;;;;;5014728;28;20180;-70
2023/10/03 14:23:10;;;;;;;2.53;1.53;;;;;;;;;;5013607;28;20214;-69
2023/10/03 14:25:37;;;;;;;3.70;1.60;;;;;;;;;;5012423;28;20187;-69
2023/10/03 14:28:04;;;;;;;3.77;2.00;;;;;;;;;;5011538;28;20195;-69
2023/10/03 14:30:31;;;;;;;3.67;1.97;;;;;;;;;;5013208;28;20548;-69
2023/10/03 14:32:57;;;;;;;2.07;1.53;;;;;;;;;;5013725;28;20630;-70
2023/10/03 14:35:23;;;;;;;2.80;2.03;;;;;;;;;;5012982;28;20322;-69
2023/10/03 14:37:49;;;;;;;2.73;1.87;;;;;;;;;;5013308;28;20563;-69
2023/10/03 14:40:18;;;;;;;1.90;1.37;;;;;;;;;;5012869;28;20241;-69